createdAt,value
2023-03-19T00:01:36.079Z,40.48
2023-03-19T00:04:06.843Z,40.47
2023-03-19T00:06:38.101Z,40.43
2023-03-19T00:09:06.431Z,40.38
2023-03-19T00:11:34.304Z,40.49
2023-03-19T00:14:10.746Z,40.63
2023-03-19T00:16:42.280Z,40.44
2023-03-19T00:19:12.854Z,40.42
2023-03-19T00:21:44.628Z,40.34
2023-03-19T00:24:15.208Z,40.38
2023-03-19T00:26:42.614Z,40.42
2023-03-19T00:29:17.074Z,40.33
2023-03-19T00:31:45.302Z,40.40
2023-03-19T00:34:13.496Z,40.43
2023-03-19T00:36:46.852Z,40.44
2023-03-19T00:39:25.570Z,40.47
2023-03-19T00:41:58.285Z,40.42
2023-03-19T00:44:25.699Z,40.39
2023-03-19T00:46:57.722Z,40.35
2023-03-19T00:49:25.548Z,40.37
2023-03-19T00:51:53.189Z,40.38
2023-03-19T00:54:22.725Z,40.37
2023-03-19T00:56:54.148Z,40.37
2023-03-19T00:59:25.250Z,40.35
2023-03-19T01:01:56.024Z,40.32
2023-03-19T01:04:26.534Z,40.33
2023-03-19T01:07:04.603Z,40.37
2023-03-19T01:09:34.675Z,40.35
2023-03-19T01:12:05.681Z,40.28
2023-03-19T01:14:36.208Z,40.23
2023-03-19T01:17:06.735Z,40.31
2023-03-19T01:19:39.733Z,40.27
2023-03-19T01:22:16.837Z,40.22
2023-03-19T01:24:45.232Z,40.23
2023-03-19T01:27:15.778Z,40.25
2023-03-19T01:29:44.973Z,40.33
2023-03-19T01:32:21.197Z,40.32
2023-03-19T01:34:50.397Z,40.28
2023-03-19T01:37:22.548Z,40.39
2023-03-19T01:39:51.396Z,40.27
2023-03-19T01:42:21.403Z,40.26
2023-03-19T01:44:54.400Z,40.23
2023-03-19T01:47:38.071Z,40.32
2023-03-19T01:50:13.544Z,40.23
2023-03-19T01:52:43.789Z,40.18
2023-03-19T01:55:11.707Z,40.23
2023-03-19T01:57:46.770Z,40.33
2023-03-19T02:00:26.221Z,40.31
2023-03-19T02:03:01.699Z,40.36
2023-03-19T02:05:36.017Z,40.28
2023-03-19T02:08:07.704Z,40.18
2023-03-19T02:10:38.702Z,40.31
2023-03-19T02:13:12.193Z,40.20
2023-03-19T02:15:45.341Z,40.28
2023-03-19T02:18:17.337Z,40.21
2023-03-19T02:20:55.810Z,40.31
2023-03-19T02:23:46.329Z,40.17
2023-03-19T02:26:20.435Z,40.28
2023-03-19T02:28:52.937Z,41.46
2023-03-19T02:31:27.992Z,41.51
2023-03-19T02:34:04.848Z,40.70
2023-03-19T02:36:45.292Z,40.34
2023-03-19T02:39:50.444Z,40.16
2023-03-19T02:42:23.208Z,40.10
2023-03-19T02:44:51.555Z,40.05
2023-03-19T02:47:22.793Z,39.99
2023-03-19T02:49:56.411Z,39.96
2023-03-19T02:52:28.709Z,39.87
2023-03-19T02:54:56.602Z,39.88
2023-03-19T02:57:28.100Z,39.82
2023-03-19T02:59:55.918Z,39.86
2023-03-19T03:02:26.832Z,39.73
2023-03-19T03:04:54.361Z,39.61
2023-03-19T03:07:28.677Z,39.66
2023-03-19T03:09:56.369Z,39.63
2023-03-19T03:12:27.042Z,39.57
2023-03-19T03:14:59.992Z,39.64
2023-03-19T03:17:30.486Z,39.54
2023-03-19T03:20:01.174Z,39.38
2023-03-19T03:22:29.084Z,39.48
2023-03-19T03:25:02.282Z,39.51
2023-03-19T03:27:33.672Z,39.57
2023-03-19T03:30:05.045Z,39.37
2023-03-19T03:32:34.170Z,39.39
2023-03-19T03:35:06.958Z,39.41
2023-03-19T03:37:37.152Z,39.43
2023-03-19T03:40:07.234Z,39.39
2023-03-19T03:42:38.086Z,39.45
2023-03-19T03:45:09.491Z,39.44
2023-03-19T03:47:37.512Z,39.36
2023-03-19T03:50:06.313Z,39.37
2023-03-19T03:52:37.073Z,39.35
2023-03-19T03:55:09.431Z,39.28
2023-03-19T03:57:47.277Z,39.33
2023-03-19T04:00:18.209Z,39.24
2023-03-19T04:02:46.116Z,39.21
2023-03-19T04:05:14.664Z,39.19
2023-03-19T04:07:48.353Z,39.17
2023-03-19T04:10:19.028Z,39.20
2023-03-19T04:12:50.167Z,39.13
2023-03-19T04:15:24.148Z,39.15
2023-03-19T04:17:52.004Z,39.22
2023-03-19T04:20:23.920Z,39.10
2023-03-19T04:22:54.373Z,39.10
2023-03-19T04:25:25.747Z,39.15
2023-03-19T04:27:58.810Z,39.05
2023-03-19T04:30:27.196Z,39.10
2023-03-19T04:33:00.222Z,39.10
2023-03-19T04:35:32.582Z,39.08
2023-03-19T04:38:03.570Z,39.04
2023-03-19T04:40:35.245Z,39.04
2023-03-19T04:43:03.413Z,39.01
2023-03-19T04:45:33.675Z,38.97
2023-03-19T04:48:05.038Z,39.05
2023-03-19T04:50:33.883Z,38.99
2023-03-19T04:53:04.840Z,38.98
2023-03-19T04:55:39.670Z,39.01
2023-03-19T04:58:07.708Z,39.00
2023-03-19T05:00:39.786Z,38.98
2023-03-19T05:03:10.707Z,39.02
2023-03-19T05:05:38.780Z,38.92
2023-03-19T05:08:10.182Z,38.91
2023-03-19T05:10:39.628Z,38.92
2023-03-19T05:13:10.925Z,38.93
2023-03-19T05:15:57.023Z,39.01
2023-03-19T05:18:27.891Z,39.09
2023-03-19T05:20:58.460Z,39.10
2023-03-19T05:23:27.849Z,39.19
2023-03-19T05:25:55.418Z,39.12
2023-03-19T05:28:30.191Z,39.11
2023-03-19T05:31:01.212Z,39.13
2023-03-19T05:33:32.485Z,39.21
2023-03-19T05:36:03.503Z,39.21
2023-03-19T05:38:37.448Z,39.27
2023-03-19T05:41:08.917Z,39.30
2023-03-19T05:43:37.141Z,39.30
2023-03-19T05:46:11.705Z,39.27
2023-03-19T05:48:43.228Z,39.34
2023-03-19T05:51:14.665Z,39.41
2023-03-19T05:53:50.923Z,39.46
2023-03-19T05:56:22.024Z,39.63
2023-03-19T05:58:53.417Z,39.42
2023-03-19T06:01:30.853Z,39.50
2023-03-19T06:04:04.260Z,39.47
2023-03-19T06:06:36.771Z,39.52
2023-03-19T06:09:05.748Z,39.43
2023-03-19T06:11:39.621Z,39.48
2023-03-19T06:14:15.648Z,39.48
2023-03-19T06:16:43.348Z,39.45
2023-03-19T06:19:16.690Z,39.39
2023-03-19T06:21:46.967Z,39.38
2023-03-19T06:24:17.512Z,39.43
2023-03-19T06:26:47.930Z,39.29
2023-03-19T06:29:16.145Z,39.28
2023-03-19T06:31:44.122Z,39.10
2023-03-19T06:34:14.735Z,39.27
2023-03-19T06:36:47.866Z,39.56
2023-03-19T06:39:16.243Z,40.30
2023-03-19T06:41:43.531Z,40.47
2023-03-19T06:44:15.049Z,40.96
2023-03-19T06:46:44.317Z,41.76
2023-03-19T06:49:16.289Z,41.58
2023-03-19T06:51:49.858Z,41.27
2023-03-19T06:54:23.696Z,41.23
2023-03-19T06:56:53.626Z,40.97
2023-03-19T06:59:25.145Z,41.13
2023-03-19T07:02:04.684Z,41.14
2023-03-19T07:04:32.568Z,41.06
2023-03-19T07:07:00.437Z,41.04
2023-03-19T07:09:27.905Z,41.76
2023-03-19T07:11:58.513Z,41.88
2023-03-19T07:14:29.356Z,41.86
2023-03-19T07:17:03.361Z,41.62
2023-03-19T07:19:46.158Z,41.48
2023-03-19T07:22:13.749Z,41.29
2023-03-19T07:24:50.807Z,41.28
2023-03-19T07:27:18.447Z,41.26
2023-03-19T07:29:48.613Z,41.08
2023-03-19T07:32:18.763Z,40.92
2023-03-19T07:34:51.982Z,41.04
2023-03-19T07:37:29.314Z,41.02
2023-03-19T07:40:00.065Z,41.07
2023-03-19T07:42:31.305Z,40.98
2023-03-19T07:44:58.821Z,41.73
2023-03-19T07:47:35.324Z,41.84
2023-03-19T07:50:11.441Z,41.68
2023-03-19T07:52:41.849Z,40.90
2023-03-19T07:55:10.211Z,40.68
2023-03-19T07:57:40.258Z,41.19
2023-03-19T08:00:14.523Z,40.92
2023-03-19T08:02:50.891Z,41.20
2023-03-19T08:05:20.967Z,40.85
2023-03-19T08:07:55.172Z,40.72
2023-03-19T08:10:28.608Z,40.55
2023-03-19T08:13:03.000Z,40.45
2023-03-19T08:15:34.448Z,40.36
2023-03-19T08:18:11.519Z,40.33
2023-03-19T08:20:38.933Z,40.18
2023-03-19T08:23:14.199Z,40.57
2023-03-19T08:25:45.208Z,40.60
2023-03-19T08:28:13.141Z,40.29
2023-03-19T08:30:47.709Z,40.36
2023-03-19T08:33:21.570Z,40.28
2023-03-19T08:35:49.309Z,40.44
2023-03-19T08:38:24.453Z,40.94
2023-03-19T08:40:51.479Z,41.17
2023-03-19T08:43:25.140Z,40.82
2023-03-19T08:45:53.393Z,41.01
2023-03-19T08:48:23.903Z,40.84
2023-03-19T08:50:58.406Z,41.30
2023-03-19T08:53:30.351Z,41.45
2023-03-19T08:56:00.162Z,41.65
2023-03-19T08:58:29.879Z,41.54
2023-03-19T09:01:06.203Z,41.78
2023-03-19T09:03:33.458Z,41.34
2023-03-19T09:06:08.445Z,41.28
2023-03-19T09:08:38.656Z,41.33
2023-03-19T09:11:15.946Z,41.13
2023-03-19T09:13:43.469Z,41.29
2023-03-19T09:16:16.355Z,41.22
2023-03-19T09:18:43.952Z,41.32
2023-03-19T09:21:14.257Z,41.31
2023-03-19T09:23:44.551Z,41.41
2023-03-19T09:26:14.739Z,41.52
2023-03-19T09:28:41.825Z,41.43
2023-03-19T09:31:10.447Z,41.25
2023-03-19T09:33:37.386Z,41.39
2023-03-19T09:36:04.858Z,41.21
2023-03-19T09:38:33.961Z,41.20
2023-03-19T09:41:20.120Z,41.32
2023-03-19T09:44:45.409Z,41.17
2023-03-19T09:47:33.808Z,38.84
2023-03-19T09:50:16.038Z,40.00
2023-03-19T09:53:13.447Z,40.38
2023-03-19T09:55:44.549Z,40.40
2023-03-19T09:58:30.957Z,40.56
2023-03-19T10:00:58.853Z,40.58
2023-03-19T10:03:31.810Z,40.63
2023-03-19T10:06:17.496Z,40.88
2023-03-19T10:09:08.532Z,40.88
2023-03-19T10:11:48.760Z,40.86
2023-03-19T10:14:46.134Z,41.10
2023-03-19T10:17:30.575Z,41.12
2023-03-19T10:20:08.158Z,41.14
2023-03-19T10:22:46.297Z,41.20
2023-03-19T10:25:23.151Z,41.34
2023-03-19T10:28:15.540Z,41.41
2023-03-19T10:30:45.856Z,41.30
2023-03-19T10:33:26.364Z,41.09
2023-03-19T10:36:05.950Z,41.41
2023-03-19T10:38:40.969Z,41.62
2023-03-19T10:41:19.696Z,41.86
2023-03-19T10:43:54.443Z,41.63
2023-03-19T10:46:21.522Z,41.55
2023-03-19T10:48:49.391Z,41.62
2023-03-19T10:51:32.238Z,41.59
2023-03-19T10:54:16.597Z,41.54
2023-03-19T10:56:56.927Z,42.08
2023-03-19T10:59:32.037Z,42.03
2023-03-19T11:02:24.654Z,42.32
2023-03-19T11:05:26.165Z,42.39
2023-03-19T11:08:13.696Z,42.52
2023-03-19T11:10:49.369Z,42.64
2023-03-19T11:13:27.699Z,42.60
2023-03-19T11:16:01.141Z,42.62
2023-03-19T11:18:29.588Z,42.58
2023-03-19T11:21:08.558Z,42.51
2023-03-19T11:23:42.977Z,42.45
2023-03-19T11:26:21.796Z,42.47
2023-03-19T11:28:52.366Z,42.43
2023-03-19T11:31:28.237Z,42.61
2023-03-19T11:34:18.215Z,42.67
2023-03-19T11:37:21.085Z,42.90
2023-03-19T11:40:06.575Z,43.03
2023-03-19T11:42:52.980Z,42.94
2023-03-19T11:45:34.038Z,43.16
2023-03-19T11:48:15.803Z,43.27
2023-03-19T11:50:58.747Z,43.25
2023-03-19T11:53:42.186Z,43.27
2023-03-19T11:56:48.866Z,43.11
2023-03-19T11:59:36.475Z,43.02
2023-03-19T12:02:39.597Z,42.94
2023-03-19T12:05:26.010Z,42.95
2023-03-19T12:08:23.951Z,42.97
2023-03-19T12:11:12.606Z,43.05
2023-03-19T12:13:48.708Z,43.07
2023-03-19T12:16:35.667Z,43.04
2023-03-19T12:19:36.655Z,43.11
2023-03-19T12:22:22.522Z,43.08
2023-03-19T12:25:11.842Z,43.18
2023-03-19T12:27:49.164Z,43.26
2023-03-19T12:30:21.949Z,43.22
2023-03-19T12:33:11.148Z,43.26
2023-03-19T12:35:44.041Z,43.32
2023-03-19T12:38:32.903Z,43.20
2023-03-19T12:41:12.324Z,43.08
2023-03-19T12:43:58.504Z,43.04
2023-03-19T12:46:44.474Z,43.03
2023-03-19T12:49:21.520Z,42.94
2023-03-19T12:52:01.193Z,42.98
2023-03-19T12:54:36.245Z,42.92
2023-03-19T12:57:07.179Z,42.96
2023-03-19T12:59:42.733Z,42.97
2023-03-19T13:02:53.425Z,42.96
2023-03-19T13:05:33.320Z,43.04
2023-03-19T13:08:03.840Z,43.08
2023-03-19T13:10:31.518Z,43.02
2023-03-19T13:13:05.778Z,43.11
2023-03-19T13:15:48.323Z,43.04
2023-03-19T13:18:50.121Z,43.12
2023-03-19T13:21:28.353Z,43.13
2023-03-19T13:24:11.126Z,43.10
2023-03-19T13:26:38.677Z,43.14
2023-03-19T13:29:30.014Z,43.09
2023-03-19T13:32:07.961Z,43.19
2023-03-19T13:34:39.608Z,43.22
2023-03-19T13:37:16.841Z,43.34
2023-03-19T13:39:48.083Z,43.37
2023-03-19T13:42:38.048Z,43.38
2023-03-19T13:45:30.466Z,43.30
2023-03-19T13:48:29.128Z,43.29
2023-03-19T13:51:27.130Z,43.28
2023-03-19T13:54:16.515Z,43.20
2023-03-19T13:57:18.948Z,43.11
2023-03-19T13:59:48.983Z,43.06
2023-03-19T14:02:22.146Z,43.02
2023-03-19T14:04:52.587Z,42.93
2023-03-19T14:07:23.983Z,42.81
2023-03-19T14:09:59.684Z,42.73
2023-03-19T14:12:36.832Z,42.72
2023-03-19T14:15:09.848Z,42.68
2023-03-19T14:18:06.601Z,42.64
2023-03-19T14:21:07.081Z,42.45
2023-03-19T14:23:52.810Z,42.45
2023-03-19T14:26:25.884Z,42.37
2023-03-19T14:29:15.821Z,42.57
2023-03-19T14:31:50.435Z,42.66
2023-03-19T14:34:28.456Z,42.70
2023-03-19T14:37:01.516Z,42.79
2023-03-19T14:39:40.651Z,41.89
2023-03-19T14:42:22.561Z,42.19
2023-03-19T14:45:14.718Z,42.48
2023-03-19T14:48:14.817Z,42.51
2023-03-19T14:51:32.944Z,42.67
2023-03-19T14:54:35.992Z,42.87
2023-03-19T14:57:20.603Z,42.94
2023-03-19T14:59:49.476Z,42.95
2023-03-19T15:02:33.978Z,42.93
2023-03-19T15:05:13.969Z,42.88
2023-03-19T15:07:48.009Z,42.71
2023-03-19T15:10:28.325Z,42.87
2023-03-19T15:13:01.912Z,42.94
2023-03-19T15:15:49.572Z,43.02
2023-03-19T15:18:17.480Z,43.17
2023-03-19T15:20:47.644Z,43.19
2023-03-19T15:23:27.474Z,43.22
2023-03-19T15:26:02.870Z,43.18
2023-03-19T15:28:44.772Z,43.28
2023-03-19T15:31:31.245Z,43.17
2023-03-19T15:34:03.008Z,43.20
2023-03-19T15:36:34.672Z,43.26
2023-03-19T15:39:08.601Z,43.46
2023-03-19T15:41:41.824Z,43.33
2023-03-19T15:44:14.219Z,39.88
2023-03-19T15:46:42.845Z,39.62
2023-03-19T15:49:20.811Z,38.45
2023-03-19T15:51:53.129Z,38.30
2023-03-19T15:54:21.241Z,37.98
2023-03-19T15:56:51.184Z,37.98
2023-03-19T15:59:22.300Z,37.87
2023-03-19T16:01:49.431Z,37.70
2023-03-19T16:04:27.212Z,37.44
2023-03-19T16:06:53.984Z,37.29
2023-03-19T16:09:33.742Z,37.33
2023-03-19T16:12:21.182Z,37.05
2023-03-19T16:14:49.741Z,37.05
2023-03-19T16:17:21.192Z,37.59
2023-03-19T16:19:51.796Z,38.47
2023-03-19T16:22:23.773Z,38.74
2023-03-19T16:24:53.496Z,38.72
2023-03-19T16:27:38.106Z,38.79
2023-03-19T16:30:19.659Z,38.88
2023-03-19T16:33:02.311Z,38.95
2023-03-19T16:35:33.872Z,39.15
2023-03-19T16:38:07.521Z,39.36
2023-03-19T16:40:46.013Z,39.53
2023-03-19T16:43:23.530Z,39.83
2023-03-19T16:46:14.969Z,40.15
2023-03-19T16:48:44.969Z,40.32
2023-03-19T16:51:17.951Z,40.75
2023-03-19T16:53:46.573Z,40.87
2023-03-19T16:56:17.178Z,41.10
2023-03-19T17:02:52.381Z,41.58
2023-03-19T17:05:23.222Z,42.05
2023-03-19T17:11:47.186Z,42.86
2023-03-19T17:14:22.941Z,42.99
2023-03-19T17:16:52.457Z,43.09
2023-03-19T17:19:26.422Z,43.39
2023-03-19T17:22:01.291Z,43.46
2023-03-19T17:24:31.087Z,43.78
2023-03-19T17:27:00.715Z,43.87
2023-03-19T17:29:28.266Z,43.92
2023-03-19T17:32:00.805Z,43.60
2023-03-19T17:34:30.544Z,43.48
2023-03-19T17:40:47.802Z,43.46
2023-03-19T17:43:21.826Z,43.29
2023-03-19T17:45:55.469Z,43.30
2023-03-19T17:51:40.283Z,42.89
2023-03-19T17:54:18.540Z,42.84
2023-03-19T17:56:55.621Z,43.04
2023-03-19T17:59:26.038Z,42.94
2023-03-19T18:02:00.995Z,43.07
2023-03-19T18:04:28.542Z,42.75
2023-03-19T18:06:59.996Z,42.47
2023-03-19T18:09:31.436Z,42.57
2023-03-19T18:12:02.055Z,42.47
2023-03-19T18:14:31.527Z,42.35
2023-03-19T18:17:02.337Z,42.60
2023-03-19T18:19:38.844Z,42.58
2023-03-19T18:22:24.441Z,42.42
2023-03-19T18:24:53.200Z,42.36
2023-03-19T18:27:23.925Z,42.38
2023-03-19T18:29:55.592Z,42.42
2023-03-19T18:32:32.428Z,42.69
2023-03-19T18:35:01.224Z,43.40
2023-03-19T18:37:31.312Z,43.05
2023-03-19T18:39:59.239Z,43.01
2023-03-19T18:42:30.322Z,43.21
2023-03-19T18:45:00.172Z,43.20
2023-03-19T18:47:27.336Z,43.22
2023-03-19T18:50:00.325Z,43.12
2023-03-19T18:52:31.256Z,43.20
2023-03-19T18:54:58.466Z,42.88
2023-03-19T18:57:27.417Z,42.77
2023-03-19T18:59:55.948Z,42.83
2023-03-19T19:02:36.073Z,42.69
2023-03-19T19:05:03.850Z,42.57
2023-03-19T19:07:30.800Z,42.55
2023-03-19T19:09:57.845Z,42.47
2023-03-19T19:12:26.557Z,42.34
2023-03-19T19:14:53.776Z,42.29
2023-03-19T19:17:27.309Z,42.29
2023-03-19T19:19:54.394Z,42.35
2023-03-19T19:22:22.468Z,42.43
2023-03-19T19:24:52.917Z,42.37
2023-03-19T19:27:23.959Z,42.17
2023-03-19T19:29:55.052Z,42.11
2023-03-19T19:32:26.858Z,42.09
2023-03-19T19:34:55.516Z,41.91
2023-03-19T19:37:25.509Z,41.70
2023-03-19T19:39:56.220Z,41.85
2023-03-19T19:42:23.807Z,42.07
2023-03-19T19:44:55.972Z,42.01
2023-03-19T19:47:25.345Z,42.26
2023-03-19T19:49:55.263Z,42.49
2023-03-19T19:52:24.740Z,42.62
2023-03-19T19:54:52.053Z,42.63
2023-03-19T19:57:23.164Z,42.70
2023-03-19T19:59:52.272Z,42.62
2023-03-19T20:02:29.750Z,42.60
2023-03-19T20:04:58.152Z,42.59
2023-03-19T20:07:25.650Z,42.61
2023-03-19T20:09:53.206Z,42.57
2023-03-19T20:12:31.144Z,42.50
2023-03-19T20:15:03.135Z,42.57
2023-03-19T20:17:34.239Z,42.54
2023-03-19T20:20:01.530Z,42.54
2023-03-19T20:22:28.812Z,42.60
2023-03-19T20:24:56.596Z,42.44
2023-03-19T20:27:33.756Z,42.42
2023-03-19T20:30:16.464Z,42.38
2023-03-19T20:35:21.380Z,42.91
2023-03-19T20:37:48.698Z,42.84
2023-03-19T20:40:16.419Z,42.60
2023-03-19T20:42:52.361Z,42.54
2023-03-19T20:45:25.917Z,42.44
2023-03-19T20:47:59.956Z,42.40
2023-03-19T20:50:31.792Z,42.30
2023-03-19T20:53:02.943Z,42.30
2023-03-19T20:55:38.084Z,42.26
2023-03-19T20:58:30.643Z,42.24
2023-03-19T21:00:59.268Z,42.26
2023-03-19T21:03:32.743Z,42.19
2023-03-19T21:06:03.347Z,42.16
2023-03-19T21:08:48.958Z,42.12
2023-03-19T21:11:20.037Z,42.13
2023-03-19T21:13:56.028Z,42.07
2023-03-19T21:16:26.833Z,42.07
2023-03-19T21:19:00.248Z,42.07
2023-03-19T21:21:37.424Z,42.02
2023-03-19T21:24:14.775Z,41.98
2023-03-19T21:26:46.139Z,41.98
2023-03-19T21:29:22.493Z,41.96
2023-03-19T21:31:51.953Z,41.95
2023-03-19T21:34:22.739Z,41.92
2023-03-19T21:36:49.953Z,41.94
2023-03-19T21:39:23.635Z,41.92
2023-03-19T21:41:51.089Z,41.94
2023-03-19T21:44:26.828Z,41.91
2023-03-19T21:47:01.790Z,41.93
2023-03-19T21:49:29.200Z,41.84
2023-03-19T21:51:56.908Z,41.91
2023-03-19T21:54:30.530Z,41.83
2023-03-19T21:56:57.797Z,41.84
2023-03-19T21:59:32.590Z,41.86
2023-03-19T22:02:00.572Z,41.79
2023-03-19T22:04:38.163Z,41.83
2023-03-19T22:07:08.390Z,41.81
2023-03-19T22:09:38.701Z,41.71
2023-03-19T22:12:07.271Z,41.75
2023-03-19T22:14:35.199Z,41.71
2023-03-19T22:17:09.323Z,41.74
2023-03-19T22:19:39.557Z,41.75
2023-03-19T22:22:09.450Z,41.74
2023-03-19T22:24:43.681Z,41.80
2023-03-19T22:27:25.746Z,41.67
2023-03-19T22:29:57.614Z,41.67
2023-03-19T22:32:28.429Z,41.66
2023-03-19T22:34:59.919Z,41.77
2023-03-19T22:37:29.790Z,41.68
2023-03-19T22:40:00.517Z,41.68
2023-03-19T22:42:27.962Z,41.65
2023-03-19T22:44:55.517Z,41.64
2023-03-19T22:47:25.574Z,41.59
2023-03-19T22:49:55.788Z,41.58
2023-03-19T22:52:23.918Z,41.56
2023-03-19T22:54:52.073Z,41.56
2023-03-19T22:57:19.643Z,41.55
2023-03-19T22:59:50.020Z,41.52
2023-03-19T23:02:25.738Z,41.54
2023-03-19T23:04:53.370Z,41.41
2023-03-19T23:07:23.551Z,41.47
2023-03-19T23:09:51.050Z,41.48
2023-03-19T23:12:21.089Z,41.41
2023-03-19T23:14:52.461Z,41.38
2023-03-19T23:17:20.464Z,41.49
2023-03-19T23:19:50.368Z,41.45
2023-03-19T23:22:20.392Z,41.37
2023-03-19T23:24:50.715Z,41.33
2023-03-19T23:27:26.412Z,41.34
2023-03-19T23:29:56.634Z,41.42
2023-03-19T23:32:23.791Z,41.31
2023-03-19T23:34:59.619Z,41.36
2023-03-19T23:37:30.355Z,41.28
2023-03-19T23:39:57.274Z,41.28
2023-03-19T23:42:29.759Z,41.30
2023-03-19T23:44:59.419Z,41.29
2023-03-19T23:47:28.938Z,41.28
2023-03-19T23:49:59.293Z,41.25
2023-03-19T23:52:29.915Z,41.25
2023-03-19T23:55:00.669Z,41.25
2023-03-19T23:57:27.941Z,41.29
2023-03-19T23:59:57.875Z,41.22
